Time;durP1;ratioP1;P1;durP2;ratioP2;P2;SDS_P1;SDS_P2;PMS_P1;PMS_P2;Temp;Humidity;BMP_temperature;BMP_pressure;BME280_temperature;BME280_humidity;BME280_pressure;Samples;Min_cycle;Max_cycle;Signal;HPM_P1;HPM_P2
2022/08/15 00:01:27;;;;;;;0.30;0.30;;;;;;;20.55;57.55;100193.78;4996622;28;20045;-69
2022/08/15 00:03:55;;;;;;;0.28;0.28;;;;;;;20.50;58.00;100184.81;5020066;28;20049;-68
2022/08/15 00:06:25;;;;;;;0.20;0.20;;;;;;;20.61;57.29;100194.44;5022202;28;20069;-69
2022/08/15 00:08:55;;;;;;;0.20;0.20;;;;;;;20.61;57.32;100199.19;5004603;28;20053;-68
2022/08/15 00:11:24;;;;;;;0.30;0.30;;;;;;;20.61;57.13;100197.19;5023921;28;20057;-69
2022/08/15 00:13:54;;;;;;;0.20;0.20;;;;;;;20.63;57.41;100202.44;5009380;28;20049;-69
2022/08/15 00:16:21;;;;;;;0.20;0.20;;;;;;;20.63;57.34;100203.22;5023158;28;20053;-69
2022/08/15 00:18:47;;;;;;;;;;;;;;;20.61;57.70;100207.50;5022602;28;20034;-69
2022/08/15 00:21:14;;;;;;;0.45;0.35;;;;;;;20.59;57.51;100204.22;4990036;28;19929;-68
2022/08/15 00:23:41;;;;;;;0.38;0.32;;;;;;;20.59;57.70;100207.00;5004487;28;20053;-70
2022/08/15 00:26:09;;;;;;;0.20;0.20;;;;;;;20.58;58.08;100206.22;5023694;28;20049;-68
2022/08/15 00:28:35;;;;;;;0.30;0.30;;;;;;;20.55;58.22;100210.44;5022713;28;20108;-69
2022/08/15 00:31:05;;;;;;;0.47;0.28;;;;;;;20.49;58.66;100209.03;5023274;28;20045;-69
2022/08/15 00:33:32;;;;;;;0.20;0.20;;;;;;;20.46;58.62;100214.41;5022128;28;20045;-69
2022/08/15 00:35:58;;;;;;;0.20;0.20;;;;;;;20.42;58.93;100208.69;5004961;28;20052;-69
2022/08/15 00:38:28;;;;;;;0.50;0.30;;;;;;;20.35;58.90;100203.66;5023110;28;20298;-70
2022/08/15 00:43:44;;;;;;;0.20;0.20;;;;;;;20.28;59.28;100211.69;5005516;28;20038;-75
2022/08/15 00:46:12;;;;;;;0.30;0.30;;;;;;;20.23;59.06;100218.22;5016958;28;20388;-73
2022/08/15 00:48:42;;;;;;;0.30;0.30;;;;;;;20.15;59.37;100209.94;5003551;28;20056;-74
2022/08/15 00:51:12;;;;;;;0.22;0.22;;;;;;;20.11;59.46;100215.31;5006131;28;20056;-75
2022/08/15 00:53:41;;;;;;;0.22;0.20;;;;;;;20.10;59.51;100214.50;5004986;28;20402;-74
2022/08/15 00:56:10;;;;;;;0.35;0.20;;;;;;;20.10;59.65;100216.47;5023503;28;20049;-75
2022/08/15 00:58:37;;;;;;;0.22;0.22;;;;;;;20.07;59.99;100219.91;5024923;28;20147;-74
2022/08/15 01:01:04;;;;;;;0.20;0.20;;;;;;;20.04;60.14;100220.56;5022421;28;20463;-74
2022/08/15 01:03:33;;;;;;;0.30;0.30;;;;;;;20.00;60.28;100219.59;5005939;28;20073;-74
2022/08/15 01:06:01;;;;;;;0.20;0.20;;;;;;;19.97;60.67;100223.84;5003599;28;20095;-73
2022/08/15 01:08:30;;;;;;;0.32;0.30;;;;;;;19.94;60.96;100225.28;5004111;28;20411;-75
2022/08/15 01:10:59;;;;;;;0.30;0.30;;;;;;;19.92;60.97;100222.03;5003425;28;20123;-74
2022/08/15 01:13:26;;;;;;;0.20;0.20;;;;;;;19.86;61.44;100228.03;5026025;28;20140;-75
2022/08/15 01:15:52;;;;;;;0.20;0.20;;;;;;;19.77;61.46;100223.34;5021120;28;20069;-74
2022/08/15 01:18:18;;;;;;;0.52;0.30;;;;;;;19.72;61.96;100233.78;5037719;28;20135;-74
2022/08/15 01:20:48;;;;;;;0.63;0.38;;;;;;;19.67;62.29;100232.81;5003696;28;20073;-73
2022/08/15 01:23:23;;;;;;;0.93;0.30;;;;;;;19.66;62.35;100238.66;5022861;28;20103;-75
2022/08/15 01:25:56;;;;;;;0.35;0.28;;;;;;;19.65;62.24;100237.84;5003058;28;20428;-75
2022/08/15 01:28:27;;;;;;;0.30;0.30;;;;;;;19.64;62.69;100232.63;5024634;28;20512;-74
2022/08/15 01:30:57;;;;;;;0.20;0.20;;;;;;;19.61;62.83;100228.53;5000766;28;20046;-75
2022/08/15 01:33:26;;;;;;;0.20;0.20;;;;;;;19.58;62.81;100236.69;5002523;28;20095;-73
2022/08/15 01:35:54;;;;;;;0.30;0.30;;;;;;;19.53;63.26;100230.16;5003713;28;20069;-74
2022/08/15 01:38:29;;;;;;;0.40;0.30;;;;;;;19.47;63.51;100241.75;5003395;28;20041;-74
2022/08/15 01:41:06;;;;;;;0.45;0.22;;;;;;;19.43;63.75;100238.78;5036124;28;20550;-74
2022/08/15 01:43:39;;;;;;;0.20;0.20;;;;;;;19.35;64.06;100237.66;5035347;28;20100;-74
2022/08/15 01:46:08;;;;;;;0.22;0.22;;;;;;;19.30;64.15;100243.34;5001663;28;20137;-74
2022/08/15 01:48:41;;;;;;;0.20;0.20;;;;;;;19.28;64.19;100245.63;5004495;28;20053;-74
2022/08/15 01:51:10;;;;;;;0.30;0.30;;;;;;;19.24;64.73;100248.22;4985523;28;20052;-74
2022/08/15 01:53:44;;;;;;;0.20;0.20;;;;;;;19.23;65.04;100243.81;4991951;28;20517;-75
2022/08/15 01:56:19;;;;;;;0.40;0.20;;;;;;;19.20;65.22;100246.41;5002704;28;20059;-75
2022/08/15 01:58:46;;;;;;;0.20;0.20;;;;;;;19.17;65.03;100252.59;4986988;28;20128;-73
2022/08/15 02:01:15;;;;;;;0.20;0.20;;;;;;;19.13;65.57;100256.03;5022127;28;20057;-74
2022/08/15 02:03:43;;;;;;;0.55;0.25;;;;;;;19.12;65.62;100256.34;5023458;28;20519;-74
2022/08/15 02:06:10;;;;;;;0.20;0.20;;;;;;;19.11;65.95;100252.78;5004705;28;20322;-74
2022/08/15 02:08:36;;;;;;;0.20;0.20;;;;;;;19.11;65.99;100249.16;5020475;28;20598;-75
2022/08/15 02:11:06;;;;;;;0.20;0.20;;;;;;;19.09;65.97;100246.75;5002846;28;20571;-74
2022/08/15 02:13:33;;;;;;;0.32;0.28;;;;;;;19.10;66.08;100251.13;5022043;28;20045;-73
2022/08/15 02:16:01;;;;;;;0.30;0.30;;;;;;;19.09;66.30;100257.00;5020080;28;20412;-73
2022/08/15 02:18:27;;;;;;;0.13;0.13;;;;;;;19.03;66.76;100264.63;5004716;28;20065;-74
2022/08/15 02:20:54;;;;;;;0.20;0.20;;;;;;;19.02;67.07;100260.22;5021922;28;20077;-74
2022/08/15 02:23:21;;;;;;;0.30;0.30;;;;;;;19.03;66.97;100264.63;5021492;28;20057;-73
2022/08/15 02:25:47;;;;;;;0.20;0.20;;;;;;;19.04;66.87;100266.25;4986308;28;20161;-74
2022/08/15 02:28:13;;;;;;;0.43;0.30;;;;;;;19.07;66.99;100270.34;5034842;28;20108;-75
2022/08/15 02:30:42;;;;;;;0.25;0.25;;;;;;;19.08;66.90;100267.28;5037885;28;20087;-73
2022/08/15 02:33:08;;;;;;;0.20;0.20;;;;;;;19.09;67.30;100265.31;5001685;28;20141;-69
2022/08/15 02:35:38;;;;;;;0.20;0.20;;;;;;;19.07;67.31;100253.72;5036414;28;20049;-69
2022/08/15 02:38:07;;;;;;;0.20;0.20;;;;;;;19.12;67.21;100265.47;4999607;28;20514;-74
2022/08/15 02:40:34;;;;;;;0.20;0.20;;;;;;;19.11;67.46;100271.34;5036719;28;20107;-75
2022/08/15 02:43:02;;;;;;;0.20;0.20;;;;;;;19.12;67.30;100267.44;5001638;28;20598;-74
2022/08/15 02:45:29;;;;;;;0.20;0.20;;;;;;;19.08;67.53;100267.28;5002244;28;20064;-74
2022/08/15 02:47:58;;;;;;;0.20;0.20;;;;;;;19.08;67.91;100271.97;5000527;28;20155;-73
2022/08/15 02:50:24;;;;;;;1.23;0.38;;;;;;;19.11;67.63;100263.03;5020473;28;20067;-74
2022/08/15 02:52:50;;;;;;;0.20;0.20;;;;;;;19.14;67.68;100267.94;4985105;28;20069;-75
2022/08/15 02:55:18;;;;;;;0.30;0.30;;;;;;;19.17;67.68;100272.00;4986817;28;20130;-75
2022/08/15 02:57:45;;;;;;;0.30;0.30;;;;;;;19.20;67.56;100272.19;5005777;28;20042;-75
2022/08/15 03:00:16;;;;;;;0.30;0.30;;;;;;;19.22;67.43;100263.56;5020243;28;20045;-69
2022/08/15 03:02:54;;;;;;;0.20;0.20;;;;;;;19.27;66.96;100274.50;5019657;28;20052;-70
2022/08/15 03:05:28;;;;;;;0.40;0.40;;;;;;;19.30;66.76;100275.81;5000556;28;20054;-69
2022/08/15 03:07:54;;;;;;;0.50;0.40;;;;;;;19.46;66.75;100278.94;5000986;28;20057;-69
2022/08/15 03:10:20;;;;;;;0.30;0.30;;;;;;;19.56;66.59;100278.63;5000088;28;20521;-69
2022/08/15 03:12:50;;;;;;;0.30;0.30;;;;;;;19.66;66.08;100294.94;5022178;28;20072;-68
2022/08/15 03:15:16;;;;;;;0.30;0.30;;;;;;;19.70;66.12;100289.56;4999459;28;20397;-68
2022/08/15 03:17:42;;;;;;;0.30;0.30;;;;;;;19.74;65.84;100284.19;5019069;28;20564;-68
2022/08/15 03:20:10;;;;;;;0.32;0.32;;;;;;;19.75;65.74;100280.28;4986059;28;20465;-68
2022/08/15 03:22:44;;;;;;;0.30;0.30;;;;;;;19.87;65.50;100293.50;5004785;28;20084;-69
2022/08/15 03:25:12;;;;;;;0.20;0.20;;;;;;;19.91;65.67;100295.28;5001178;28;20057;-66
2022/08/15 03:27:40;;;;;;;0.30;0.30;;;;;;;19.94;65.15;100291.88;5020616;28;20415;-68
2022/08/15 03:30:09;;;;;;;0.30;0.30;;;;;;;19.95;65.53;100292.72;4999175;28;20477;-68
2022/08/15 03:32:44;;;;;;;0.28;0.28;;;;;;;19.92;65.21;100282.28;5018845;28;20041;-69
2022/08/15 03:35:10;;;;;;;0.28;0.28;;;;;;;19.99;64.95;100285.38;5020112;28;20049;-69
2022/08/15 03:37:39;;;;;;;0.30;0.30;;;;;;;20.05;65.18;100283.25;5001715;28;20050;-67
2022/08/15 03:40:08;;;;;;;0.35;0.35;;;;;;;20.03;65.27;100291.88;5015006;28;20055;-75
2022/08/15 03:42:38;;;;;;;0.30;0.30;;;;;;;20.07;65.23;100292.88;4985064;28;20049;-75
2022/08/15 03:45:11;;;;;;;0.20;0.20;;;;;;;20.10;65.21;100289.44;5020646;28;20045;-75
2022/08/15 03:47:37;;;;;;;0.30;0.30;;;;;;;20.10;64.76;100286.69;4969827;28;20052;-68
2022/08/15 03:50:04;;;;;;;0.30;0.30;;;;;;;20.16;64.92;100287.31;5005725;28;20085;-69
2022/08/15 03:52:30;;;;;;;0.30;0.30;;;;;;;20.21;64.94;100294.66;5005324;28;20045;-69
2022/08/15 03:55:00;;;;;;;0.40;0.40;;;;;;;20.25;64.77;100287.31;5005741;28;20056;-70
2022/08/15 03:57:28;;;;;;;0.40;0.40;;;;;;;20.35;64.43;100292.50;4973494;28;20134;-69
2022/08/15 03:59:55;;;;;;;0.30;0.30;;;;;;;20.41;64.32;100287.59;5006233;28;20053;-69
2022/08/15 04:02:24;;;;;;;0.30;0.30;;;;;;;20.46;64.10;100293.00;5024739;28;20067;-70
2022/08/15 04:04:50;;;;;;;0.32;0.32;;;;;;;20.52;64.10;100288.88;4989999;28;20077;-69
2022/08/15 04:07:17;;;;;;;0.30;0.30;;;;;;;20.60;63.72;100289.19;5003799;28;20050;-69
2022/08/15 04:09:43;;;;;;;0.30;0.30;;;;;;;20.64;63.34;100292.94;4984334;28;20054;-70
2022/08/15 04:12:10;;;;;;;0.20;0.20;;;;;;;20.66;63.61;100302.56;5023740;28;20428;-70
2022/08/15 04:14:40;;;;;;;0.40;0.40;;;;;;;20.69;63.73;100301.09;5037982;28;20053;-69
2022/08/15 04:17:10;;;;;;;0.28;0.28;;;;;;;20.71;63.50;100295.22;4999995;28;20053;-70
2022/08/15 04:19:36;;;;;;;0.30;0.30;;;;;;;20.75;63.21;100290.63;4999262;28;20060;-69
2022/08/15 04:22:03;;;;;;;0.40;0.40;;;;;;;20.77;63.27;100291.94;4985357;28;20053;-70
2022/08/15 04:24:30;;;;;;;0.40;0.40;;;;;;;20.86;63.25;100291.09;5006131;28;20415;-71
2022/08/15 04:26:56;;;;;;;0.30;0.30;;;;;;;20.93;62.89;100285.84;5007168;28;20869;-69
2022/08/15 04:29:22;;;;;;;0.30;0.30;;;;;;;21.04;62.62;100287.09;5025368;28;20053;-70
2022/08/15 04:31:50;;;;;;;0.63;0.50;;;;;;;21.17;62.06;100288.03;5037563;28;20061;-69
2022/08/15 04:34:16;;;;;;;0.32;0.30;;;;;;;21.28;61.78;100288.47;5004698;28;20045;-69
2022/08/15 04:36:44;;;;;;;0.30;0.30;;;;;;;21.39;61.53;100288.88;5036401;28;20395;-69
2022/08/15 04:39:10;;;;;;;0.57;0.47;;;;;;;21.50;60.92;100286.50;5015856;28;20050;-70
2022/08/15 04:41:44;;;;;;;0.30;0.30;;;;;;;21.61;60.51;100284.97;5003679;28;20131;-69
2022/08/15 04:44:11;;;;;;;0.28;0.28;;;;;;;21.68;60.70;100292.81;4989013;28;20049;-69
2022/08/15 04:46:37;;;;;;;0.30;0.30;;;;;;;21.73;60.39;100291.81;5010449;28;20045;-69
2022/08/15 04:49:05;;;;;;;0.30;0.30;;;;;;;21.74;60.44;100283.09;5000283;28;20073;-75
2022/08/15 04:51:31;;;;;;;0.38;0.38;;;;;;;21.75;59.93;100279.16;5014466;28;20446;-69
2022/08/15 04:53:57;;;;;;;0.40;0.40;;;;;;;21.77;60.11;100276.84;5015484;28;20128;-69
2022/08/15 04:56:23;;;;;;;0.30;0.30;;;;;;;21.82;59.55;100284.19;4982482;28;20389;-70
2022/08/15 04:58:49;;;;;;;0.30;0.30;;;;;;;21.83;59.16;100276.66;5015052;28;20304;-69
2022/08/15 05:01:19;;;;;;;0.30;0.30;;;;;;;21.87;59.09;100289.56;5031395;28;20053;-69
2022/08/15 05:03:53;;;;;;;0.40;0.40;;;;;;;21.86;59.10;100293.50;5024779;28;20041;-75
2022/08/15 05:06:21;;;;;;;0.30;0.30;;;;;;;21.84;58.80;100287.44;5010964;28;20508;-69
2022/08/15 05:08:48;;;;;;;0.30;0.30;;;;;;;21.87;58.78;100285.94;5010641;28;20132;-75
2022/08/15 05:11:19;;;;;;;0.30;0.30;;;;;;;21.92;58.12;100289.34;4991334;28;20103;-70
2022/08/15 05:13:57;;;;;;;0.30;0.30;;;;;;;22.00;57.40;100284.84;5006292;28;20046;-69
2022/08/15 05:16:28;;;;;;;0.35;0.35;;;;;;;22.10;57.04;100283.63;4999515;28;20063;-69
2022/08/15 05:18:54;;;;;;;0.30;0.30;;;;;;;22.19;56.36;100287.16;5044380;28;20139;-70
2022/08/15 05:21:22;;;;;;;0.30;0.30;;;;;;;22.28;55.89;100278.72;5012244;28;20288;-75
2022/08/15 05:23:49;;;;;;;0.30;0.30;;;;;;;22.41;54.91;100284.31;4990136;28;20057;-76
2022/08/15 05:26:27;;;;;;;0.43;0.30;;;;;;;22.52;54.66;100279.94;5018998;28;20057;-77
2022/08/15 05:28:54;;;;;;;0.30;0.30;;;;;;;22.64;54.17;100281.97;5030040;28;20092;-75
2022/08/15 05:31:20;;;;;;;0.30;0.30;;;;;;;22.75;53.87;100283.13;4995653;28;20059;-77
2022/08/15 05:33:51;;;;;;;0.30;0.30;;;;;;;22.84;53.51;100287.81;4976026;28;20048;-76
2022/08/15 05:36:18;;;;;;;0.30;0.30;;;;;;;22.92;52.91;100289.66;5023061;28;20095;-76
2022/08/15 05:38:49;;;;;;;0.30;0.30;;;;;;;22.99;52.58;100280.72;4996434;28;20539;-75
2022/08/15 05:41:31;;;;;;;1.50;0.30;;;;;;;23.04;52.38;100278.50;5012423;28;20096;-76
2022/08/15 05:44:02;;;;;;;0.30;0.30;;;;;;;23.11;51.98;100271.56;5010724;28;20311;-76
2022/08/15 05:46:43;;;;;;;0.40;0.40;;;;;;;23.18;51.51;100271.78;4993396;28;20060;-75
2022/08/15 05:49:30;;;;;;;0.30;0.30;;;;;;;23.24;51.14;100275.94;4987311;28;20064;-75
2022/08/15 05:52:10;;;;;;;0.30;0.30;;;;;;;23.34;50.86;100278.31;5008407;28;20056;-75
2022/08/15 05:54:53;;;;;;;0.20;0.20;;;;;;;23.38;50.99;100278.41;4997126;28;20049;-75
2022/08/15 05:57:25;;;;;;;0.28;0.28;;;;;;;23.49;50.56;100275.97;5022874;28;20046;-76
2022/08/15 05:59:55;;;;;;;0.30;0.30;;;;;;;23.58;50.26;100270.25;5008827;28;20508;-75
2022/08/15 06:02:39;;;;;;;0.65;0.35;;;;;;;23.66;49.70;100274.88;5012841;28;20049;-75
2022/08/15 06:05:09;;;;;;;0.47;0.38;;;;;;;23.74;49.67;100275.91;5007094;28;20140;-75
2022/08/15 06:07:35;;;;;;;0.30;0.30;;;;;;;23.92;49.38;100274.47;5021341;28;20046;-76
2022/08/15 06:10:06;;;;;;;0.40;0.40;;;;;;;24.18;48.67;100273.19;5006616;28;20095;-76
2022/08/15 06:12:40;;;;;;;0.30;0.30;;;;;;;24.39;48.04;100274.16;4991285;28;20509;-75
2022/08/15 06:15:17;;;;;;;0.30;0.30;;;;;;;24.53;46.63;100270.94;5037497;28;20090;-76
2022/08/15 06:17:54;;;;;;;0.43;0.40;;;;;;;24.66;45.24;100263.28;5008550;28;20049;-76
2022/08/15 06:20:27;;;;;;;0.50;0.40;;;;;;;24.75;44.09;100263.94;5003357;28;20532;-75
2022/08/15 06:23:07;;;;;;;0.30;0.30;;;;;;;24.87;43.31;100261.03;5009546;28;20045;-75
2022/08/15 06:25:45;;;;;;;0.30;0.30;;;;;;;25.00;43.04;100266.53;5011672;28;20154;-75
2022/08/15 06:28:36;;;;;;;0.30;0.30;;;;;;;25.11;42.23;100261.19;5036769;28;20617;-70
2022/08/15 06:31:11;;;;;;;0.30;0.30;;;;;;;25.24;41.96;100259.91;5009050;28;20136;-70
2022/08/15 06:33:43;;;;;;;0.30;0.30;;;;;;;25.35;41.55;100266.59;5017117;28;20049;-70
2022/08/15 06:36:17;;;;;;;0.35;0.35;;;;;;;25.47;41.48;100264.84;4990502;28;20049;-70
2022/08/15 06:38:50;;;;;;;0.40;0.40;;;;;;;25.65;40.96;100276.44;5018239;28;20050;-70
2022/08/15 06:41:26;;;;;;;0.30;0.30;;;;;;;25.74;40.43;100270.63;5004225;28;20513;-70
2022/08/15 06:43:58;;;;;;;1.13;0.40;;;;;;;25.81;40.31;100269.97;5004863;28;20401;-69
2022/08/15 06:46:33;;;;;;;0.30;0.30;;;;;;;25.85;40.30;100276.47;5037505;28;20308;-70
2022/08/15 06:49:03;;;;;;;0.35;0.35;;;;;;;25.96;40.03;100277.50;4986871;28;20053;-70
2022/08/15 06:51:32;;;;;;;0.40;0.32;;;;;;;26.17;39.29;100276.31;5019177;28;20056;-70
2022/08/15 06:53:59;;;;;;;0.40;0.40;;;;;;;26.30;39.36;100277.00;5004395;28;20055;-69
2022/08/15 06:56:39;;;;;;;0.40;0.40;;;;;;;26.37;38.89;100279.13;5002889;28;20076;-70
2022/08/15 06:59:14;;;;;;;0.30;0.30;;;;;;;26.39;38.24;100280.38;5039382;28;20052;-70
2022/08/15 07:01:52;;;;;;;0.30;0.30;;;;;;;26.42;38.32;100284.41;5004348;28;20049;-70
2022/08/15 07:04:25;;;;;;;0.55;0.30;;;;;;;26.48;38.37;100286.53;5002940;28;20037;-69
2022/08/15 07:07:01;;;;;;;0.63;0.40;;;;;;;26.62;38.39;100288.00;5004294;28;20049;-69
2022/08/15 07:09:41;;;;;;;0.38;0.38;;;;;;;26.63;38.21;100289.59;5003468;28;20132;-69
2022/08/15 07:12:20;;;;;;;0.30;0.30;;;;;;;26.57;38.65;100285.50;5019618;28;20111;-68
2022/08/15 07:14:54;;;;;;;0.30;0.30;;;;;;;26.71;38.39;100277.34;5032004;28;20050;-75
2022/08/15 07:17:33;;;;;;;0.30;0.30;;;;;;;26.79;37.96;100283.06;5002497;28;20046;-73
2022/08/15 07:20:06;;;;;;;0.40;0.40;;;;;;;26.92;38.11;100286.50;4986170;28;20143;-73
2022/08/15 07:22:39;;;;;;;0.30;0.30;;;;;;;27.00;37.37;100282.66;4969252;28;20050;-69
2022/08/15 07:25:10;;;;;;;0.40;0.40;;;;;;;26.99;36.97;100281.81;5018904;28;20457;-70
2022/08/15 07:27:38;;;;;;;0.40;0.40;;;;;;;27.12;36.83;100285.25;5000965;28;20045;-68
2022/08/15 07:30:16;;;;;;;0.30;0.30;;;;;;;27.22;36.62;100288.59;5021384;28;20062;-69
2022/08/15 07:32:50;;;;;;;0.30;0.30;;;;;;;27.30;36.06;100293.94;5002393;28;20079;-70
2022/08/15 07:35:22;;;;;;;0.40;0.40;;;;;;;27.38;36.03;100291.25;5015426;28;20501;-73
2022/08/15 07:37:56;;;;;;;0.40;0.40;;;;;;;27.52;35.91;100285.03;4984470;28;20046;-73
2022/08/15 07:40:27;;;;;;;0.40;0.40;;;;;;;27.67;35.56;100284.06;4983931;28;20042;-73
2022/08/15 07:42:55;;;;;;;0.40;0.40;;;;;;;27.82;34.99;100298.28;5005369;28;20128;-73
2022/08/15 07:45:29;;;;;;;0.38;0.38;;;;;;;27.88;34.80;100282.72;5006649;28;20041;-73
2022/08/15 07:48:04;;;;;;;0.40;0.40;;;;;;;28.01;34.53;100283.28;4975725;28;20033;-68
2022/08/15 07:50:35;;;;;;;0.40;0.40;;;;;;;28.09;34.55;100287.00;5009704;28;20547;-70
2022/08/15 07:53:11;;;;;;;0.40;0.40;;;;;;;28.21;33.87;100283.13;5026666;28;20050;-69
2022/08/15 07:55:39;;;;;;;0.40;0.40;;;;;;;28.31;33.57;100282.44;5007075;28;20053;-69
2022/08/15 07:58:17;;;;;;;0.40;0.40;;;;;;;28.51;33.29;100279.44;5002410;28;20583;-73
2022/08/15 08:00:52;;;;;;;0.40;0.40;;;;;;;28.70;32.96;100279.19;5028113;28;20041;-73
2022/08/15 08:03:31;;;;;;;0.32;0.32;;;;;;;28.82;32.63;100280.97;5003818;28;20059;-73
2022/08/15 08:06:06;;;;;;;0.40;0.40;;;;;;;28.59;32.18;100284.72;5003416;28;20048;-73
2022/08/15 08:08:38;;;;;;;0.40;0.40;;;;;;;28.73;31.13;100278.44;4988265;28;20464;-72
2022/08/15 08:11:14;;;;;;;0.50;0.50;;;;;;;29.07;30.51;100285.19;4982755;28;20064;-73
2022/08/15 08:13:51;;;;;;;0.30;0.30;;;;;;;28.91;30.25;100291.06;5035977;28;20081;-72
2022/08/15 08:16:25;;;;;;;0.50;0.50;;;;;;;28.74;29.41;100296.13;4998187;28;20053;-69
2022/08/15 08:18:58;;;;;;;0.65;0.45;;;;;;;28.79;28.28;100295.75;4999270;28;20215;-69
2022/08/15 08:21:29;;;;;;;0.50;0.50;;;;;;;28.71;28.58;100292.06;5002442;28;20045;-70
2022/08/15 08:24:02;;;;;;;0.50;0.50;;;;;;;29.12;28.24;100290.44;5020863;28;20076;-68
2022/08/15 08:26:33;;;;;;;0.40;0.40;;;;;;;29.17;28.81;100283.63;5000661;28;20104;-69
2022/08/15 08:29:08;;;;;;;0.50;0.50;;;;;;;29.08;29.07;100292.41;5023826;28;20397;-69
2022/08/15 08:31:42;;;;;;;0.40;0.40;;;;;;;29.17;29.23;100292.09;5008344;28;20148;-69
2022/08/15 08:34:19;;;;;;;0.60;0.60;;;;;;;29.69;28.58;100286.41;5021046;28;20055;-69
2022/08/15 08:36:56;;;;;;;0.60;0.60;;;;;;;30.55;26.93;100285.06;5024692;28;20594;-70
2022/08/15 08:39:33;;;;;;;0.75;0.50;;;;;;;30.56;26.89;100284.69;5016216;28;20053;-70
2022/08/15 08:42:11;;;;;;;0.40;0.40;;;;;;;30.35;26.91;100282.63;5002627;28;20045;-70
2022/08/15 08:44:47;;;;;;;0.68;0.50;;;;;;;29.79;27.35;100273.56;5005677;28;20084;-69
2022/08/15 08:47:24;;;;;;;0.95;0.50;;;;;;;29.68;26.52;100277.13;5007542;28;20060;-69
2022/08/15 08:50:06;;;;;;;0.50;0.50;;;;;;;29.81;26.61;100280.41;5023405;28;20516;-73
2022/08/15 08:52:43;;;;;;;0.55;0.55;;;;;;;29.54;27.22;100265.78;5007190;28;21571;-73
2022/08/15 08:55:18;;;;;;;0.60;0.60;;;;;;;29.52;27.41;100279.47;5025056;28;20132;-73
2022/08/15 08:57:52;;;;;;;0.60;0.60;;;;;;;29.70;26.71;100280.34;5024275;28;20504;-73
2022/08/15 09:00:21;;;;;;;0.60;0.60;;;;;;;30.04;26.38;100275.69;5026513;28;20416;-73
2022/08/15 09:02:51;;;;;;;0.40;0.40;;;;;;;30.23;26.38;100272.53;5007945;28;20092;-73
2022/08/15 09:05:28;;;;;;;0.80;0.80;;;;;;;30.27;26.15;100272.53;5017796;28;20037;-73
2022/08/15 09:07:59;;;;;;;0.80;0.80;;;;;;;31.34;24.58;100281.47;5001020;28;20132;-74
2022/08/15 09:10:34;;;;;;;0.95;0.70;;;;;;;32.33;23.81;100285.56;5009024;28;20049;-73
2022/08/15 09:15:55;;;;;;;0.80;0.80;;;;;;;34.28;21.97;100264.22;5005539;28;20041;-73
2022/08/15 09:18:27;;;;;;;0.90;0.90;;;;;;;34.70;21.19;100269.69;5019649;28;20048;-73
2022/08/15 09:20:53;;;;;;;0.80;0.80;;;;;;;34.66;21.73;100261.22;5005280;28;20053;-74
2022/08/15 09:23:20;;;;;;;0.90;0.90;;;;;;;34.74;21.43;100268.41;5013114;28;20042;-70
2022/08/15 09:25:57;;;;;;;0.80;0.80;;;;;;;35.26;20.86;100263.44;5000756;28;20042;-70
2022/08/15 09:28:31;;;;;;;0.90;0.90;;;;;;;36.05;20.20;100258.19;5017116;28;20495;-72
2022/08/15 09:31:04;;;;;;;0.90;0.90;;;;;;;36.79;18.76;100269.50;5024295;28;20041;-73
2022/08/15 09:34:19;;;;;;;0.60;0.60;;;;;;;36.81;18.35;100261.31;5025381;28;20049;-73
2022/08/15 09:37:16;;;;;;;0.60;0.60;;;;;;;35.18;20.17;100256.28;4955868;28;20089;-74
2022/08/15 09:40:18;;;;;;;0.70;0.70;;;;;;;34.41;21.01;100250.25;4969761;28;20056;-73
2022/08/15 09:42:59;;;;;;;0.60;0.60;;;;;;;34.12;21.28;100253.50;5018048;28;20402;-70
2022/08/15 09:45:37;;;;;;;0.60;0.60;;;;;;;33.29;22.57;100253.25;5024906;28;20049;-69
2022/08/15 09:48:23;;;;;;;0.60;0.60;;;;;;;32.38;23.11;100259.69;5023731;28;20427;-70
2022/08/15 09:51:36;;;;;;;0.60;0.60;;;;;;;32.04;23.92;100253.78;5022930;28;20524;-69
2022/08/15 09:54:08;;;;;;;0.70;0.70;;;;;;;32.04;23.63;100257.44;5016130;28;20058;-74
2022/08/15 09:56:37;;;;;;;0.60;0.60;;;;;;;32.25;24.02;100250.03;5019228;28;20049;-74
2022/08/15 09:59:14;;;;;;;0.50;0.50;;;;;;;32.09;23.72;100259.81;5006666;28;20107;-73
2022/08/15 10:01:47;;;;;;;0.50;0.50;;;;;;;31.87;23.81;100250.66;5000838;28;20081;-73
2022/08/15 10:04:18;;;;;;;0.60;0.60;;;;;;;31.63;24.65;100250.34;5007355;28;20084;-74
2022/08/15 10:07:31;;;;;;;0.60;0.60;;;;;;;31.44;24.60;100253.59;5008732;28;20051;-74
2022/08/15 10:10:11;;;;;;;0.60;0.60;;;;;;;31.43;24.66;100260.47;4958844;28;20537;-69
2022/08/15 10:12:38;;;;;;;0.70;0.70;;;;;;;31.62;23.77;100254.38;5020065;28;20081;-74
2022/08/15 10:15:30;;;;;;;0.70;0.70;;;;;;;32.00;23.54;100264.31;5004424;28;20061;-72
2022/08/15 10:17:58;;;;;;;0.80;0.80;;;;;;;32.15;22.50;100248.06;5004294;28;20041;-74
2022/08/15 10:20:50;;;;;;;0.70;0.70;;;;;;;32.39;22.62;100246.31;5019564;28;20065;-73
2022/08/15 10:23:18;;;;;;;0.90;0.90;;;;;;;32.90;22.15;100254.47;5002592;28;20057;-74
2022/08/15 10:25:45;;;;;;;1.10;1.10;;;;;;;33.93;21.55;100242.38;5022923;28;20056;-73
2022/08/15 10:28:23;;;;;;;1.50;1.40;;;;;;;35.82;19.86;100252.59;5018680;28;20097;-74
2022/08/15 10:31:25;;;;;;;1.50;1.40;;;;;;;37.79;18.20;100250.13;5017127;28;20103;-74
2022/08/15 10:33:53;;;;;;;1.00;1.00;;;;;;;38.22;17.55;100245.16;4999088;28;20052;-73
2022/08/15 10:36:27;;;;;;;1.40;1.30;;;;;;;37.59;18.48;100250.28;5000954;28;20048;-70
2022/08/15 10:39:12;;;;;;;1.20;1.20;;;;;;;37.27;18.40;100246.28;5004058;28;20524;-70
2022/08/15 10:41:57;;;;;;;0.90;0.90;;;;;;;36.39;19.62;100246.88;4976718;28;20042;-70
2022/08/15 10:44:41;;;;;;;0.80;0.80;;;;;;;34.65;21.47;100251.09;5002340;28;20188;-74
2022/08/15 10:47:25;;;;;;;1.17;1.15;;;;;;;34.27;22.40;100242.75;5024780;28;20401;-71
2022/08/15 10:50:09;;;;;;;1.33;1.23;;;;;;;34.83;21.19;100236.59;4998833;28;20135;-70
2022/08/15 10:52:48;;;;;;;1.55;1.45;;;;;;;35.80;20.29;100235.97;5022174;28;20072;-71
2022/08/15 10:55:23;;;;;;;1.50;1.40;;;;;;;36.71;19.12;100239.63;5024400;28;20136;-69
2022/08/15 10:57:56;;;;;;;1.00;1.00;;;;;;;36.62;19.11;100237.41;5044034;28;20083;-70
2022/08/15 11:00:37;;;;;;;0.90;0.90;;;;;;;35.37;20.27;100236.88;5026497;28;20049;-69
2022/08/15 11:03:07;;;;;;;1.30;1.20;;;;;;;35.01;21.00;100239.09;5024066;28;20037;-70
2022/08/15 11:05:34;;;;;;;1.50;1.40;;;;;;;35.31;20.69;100240.19;5023104;28;20056;-70
2022/08/15 11:08:02;;;;;;;1.50;1.40;;;;;;;36.02;19.97;100235.50;4987094;28;20524;-71
2022/08/15 11:10:32;;;;;;;1.55;1.45;;;;;;;37.15;19.20;100239.28;5011305;28;20049;-69
2022/08/15 11:13:08;;;;;;;1.50;1.40;;;;;;;37.60;18.53;100244.16;5013020;28;20136;-69
2022/08/15 11:15:47;;;;;;;1.60;1.50;;;;;;;38.65;17.65;100230.75;5020202;28;20148;-67
2022/08/15 11:18:21;;;;;;;1.55;1.45;;;;;;;38.80;16.89;100228.22;5022113;28;20045;-68
2022/08/15 11:20:52;;;;;;;1.60;1.50;;;;;;;39.04;16.74;100242.88;4983979;28;20050;-68
2022/08/15 11:23:31;;;;;;;1.65;1.55;;;;;;;39.26;16.46;100224.94;5022807;28;20045;-73
2022/08/15 11:25:58;;;;;;;1.80;1.70;;;;;;;39.79;16.39;100237.69;5023848;28;20052;-74
2022/08/15 11:28:25;;;;;;;1.70;1.60;;;;;;;39.90;16.04;100235.25;5010331;28;20120;-69
2022/08/15 11:30:59;;;;;;;1.70;1.60;;;;;;;39.96;16.01;100233.34;5014932;28;20053;-70
2022/08/15 11:33:30;;;;;;;1.70;1.60;;;;;;;39.97;15.95;100226.41;5004408;28;20515;-74
2022/08/15 11:36:06;;;;;;;1.70;1.60;;;;;;;40.46;15.72;100226.09;5004462;28;20489;-73
2022/08/15 11:38:40;;;;;;;1.63;1.52;;;;;;;40.71;15.43;100222.16;5018980;28;20063;-72
2022/08/15 11:41:07;;;;;;;1.70;1.60;;;;;;;39.45;16.37;100227.97;4648865;28;10000643;-74
2022/08/15 11:43:34;;;;;;;1.77;1.67;;;;;;;38.96;17.05;100222.34;5010349;28;20094;-73
2022/08/15 11:46:00;;;;;;;1.70;1.60;;;;;;;39.08;16.64;100220.69;5017240;28;20056;-74
2022/08/15 11:48:30;;;;;;;1.70;1.60;;;;;;;38.93;16.95;100223.25;5018770;28;20132;-73
2022/08/15 11:50:59;;;;;;;1.70;1.60;;;;;;;39.18;16.52;100220.75;5021252;28;20119;-73
2022/08/15 11:53:29;;;;;;;1.63;1.52;;;;;;;38.83;16.54;100213.78;5020247;28;20099;-74